createdAt,value
2023-05-15T00:00:23.107Z,100506.50
2023-05-15T00:05:26.929Z,100501.25
2023-05-15T00:10:30.568Z,100504.81
2023-05-15T00:15:35.455Z,100501.38
2023-05-15T00:20:39.209Z,100499.66
2023-05-15T00:25:42.618Z,100509.38
2023-05-15T00:30:47.435Z,100512.00
2023-05-15T00:35:51.169Z,100521.69
2023-05-15T00:40:56.512Z,100522.63
2023-05-15T00:46:02.581Z,100519.16
2023-05-15T00:51:06.665Z,100519.22
2023-05-15T00:56:12.391Z,100514.91
2023-05-15T01:01:18.250Z,100522.84
2023-05-15T01:06:22.128Z,100524.63
2023-05-15T01:11:35.736Z,100522.00
2023-05-15T01:16:41.748Z,100521.13
2023-05-15T01:22:29.180Z,100522.03
2023-05-15T01:27:38.180Z,100521.19
2023-05-15T01:32:48.473Z,100519.41
2023-05-15T01:38:02.416Z,100515.88
2023-05-15T01:43:10.748Z,100523.75
2023-05-15T01:48:16.850Z,100484.34
2023-05-15T01:53:21.558Z,100525.44
2023-05-15T01:58:27.249Z,100539.41
2023-05-15T02:03:34.507Z,100540.19
2023-05-15T02:08:38.730Z,100540.97
2023-05-15T02:13:44.108Z,100538.19
2023-05-15T02:18:47.657Z,100545.16
2023-05-15T02:24:10.805Z,100546.78
2023-05-15T02:29:21.449Z,100541.38
2023-05-15T02:34:29.602Z,100542.97
2023-05-15T02:39:35.040Z,100541.03
2023-05-15T02:44:42.016Z,100538.19
2023-05-15T02:49:46.631Z,100537.94
2023-05-15T02:54:50.050Z,100535.06
2023-05-15T02:59:55.714Z,100541.81
2023-05-15T03:04:59.294Z,100542.34
2023-05-15T03:10:02.869Z,100542.91
2023-05-15T03:15:10.288Z,100547.88
2023-05-15T03:20:14.195Z,100547.50
2023-05-15T03:25:17.741Z,100553.22
2023-05-15T03:30:23.008Z,100554.47
2023-05-15T03:35:27.266Z,100559.13
2023-05-15T03:40:31.224Z,100562.06
2023-05-15T03:45:36.698Z,100559.59
2023-05-15T03:50:40.595Z,100555.34
2023-05-15T03:55:46.950Z,100538.88
2023-05-15T04:00:52.356Z,100554.63
2023-05-15T04:05:55.991Z,100560.88
2023-05-15T04:10:59.424Z,100564.41
2023-05-15T04:16:07.399Z,100555.38
2023-05-15T04:21:10.870Z,100557.97
2023-05-15T04:26:14.369Z,100560.53
2023-05-15T04:31:19.475Z,100548.78
2023-05-15T04:36:23.270Z,100553.00
2023-05-15T04:41:26.895Z,100553.56
2023-05-15T04:46:34.870Z,100554.25
2023-05-15T04:51:38.632Z,100553.31
2023-05-15T04:56:42.010Z,100558.63
2023-05-15T05:01:47.048Z,100556.59
2023-05-15T05:06:50.910Z,100559.97
2023-05-15T05:11:54.446Z,100548.09
2023-05-15T05:16:59.419Z,100544.28
2023-05-15T05:22:05.260Z,100553.88
2023-05-15T05:27:08.810Z,100545.53
2023-05-15T05:32:13.773Z,100537.34
2023-05-15T05:37:17.357Z,100538.13
2023-05-15T05:42:20.894Z,100542.25
2023-05-15T05:47:25.896Z,100529.78
2023-05-15T05:52:29.612Z,100535.25
2023-05-15T05:57:33.091Z,100533.38
2023-05-15T06:02:38.498Z,100524.88
2023-05-15T06:07:43.299Z,100523.28
2023-05-15T06:12:46.816Z,100511.91
2023-05-15T06:17:51.749Z,100515.03
2023-05-15T06:22:55.223Z,100519.25
2023-05-15T06:27:58.593Z,100513.03
2023-05-15T06:33:03.600Z,100506.97
2023-05-15T06:38:07.138Z,100506.66
2023-05-15T06:43:11.208Z,100495.19
2023-05-15T06:48:16.203Z,100505.22
2023-05-15T06:53:21.204Z,100502.47
2023-05-15T06:58:25.190Z,100501.69
2023-05-15T07:03:30.046Z,100505.16
2023-05-15T07:08:33.506Z,100495.94
2023-05-15T07:13:37.132Z,100487.13
2023-05-15T07:18:42.071Z,100495.88
2023-05-15T07:23:45.720Z,100492.97
2023-05-15T07:28:49.310Z,100493.38
2023-05-15T07:33:54.107Z,100478.75
2023-05-15T07:38:57.551Z,100469.66
2023-05-15T07:44:01.120Z,100459.91
2023-05-15T07:49:06.071Z,100467.31
2023-05-15T07:54:09.720Z,100463.44
2023-05-15T07:59:13.402Z,100456.75
2023-05-15T08:04:18.438Z,100436.28
2023-05-15T08:09:22.130Z,100434.56
2023-05-15T08:14:25.888Z,100434.94
2023-05-15T08:19:30.876Z,100420.38
2023-05-15T08:24:34.468Z,100426.25
2023-05-15T08:29:39.485Z,100413.22
2023-05-15T08:34:44.732Z,100401.72
2023-05-15T08:39:49.287Z,100409.59
2023-05-15T08:44:53.327Z,100413.53
2023-05-15T08:50:04.896Z,100394.84
2023-05-15T08:55:11.958Z,100375.09
2023-05-15T09:00:16.593Z,100382.44
2023-05-15T09:05:24.595Z,100372.06
2023-05-15T09:10:28.493Z,100355.59
2023-05-15T09:15:32.612Z,100340.69
2023-05-15T09:20:39.774Z,100336.16
2023-05-15T09:25:46.994Z,100331.22
2023-05-15T09:30:50.844Z,100334.09
2023-05-15T09:35:55.817Z,100332.81
2023-05-15T09:41:04.446Z,100327.09
2023-05-15T09:46:12.399Z,100336.72
2023-05-15T09:51:18.981Z,100329.09
2023-05-15T09:56:23.274Z,100316.41
2023-05-15T10:01:27.858Z,100310.63
2023-05-15T10:06:38.423Z,100314.00
2023-05-15T10:11:44.901Z,100310.25
2023-05-15T10:16:48.418Z,100300.50
2023-05-15T10:21:55.275Z,100294.91
2023-05-15T10:26:59.055Z,100299.63
2023-05-15T10:32:03.009Z,100296.81
2023-05-15T10:37:09.032Z,100299.59
2023-05-15T10:42:14.149Z,100289.75
2023-05-15T10:47:17.788Z,100288.63
2023-05-15T10:52:23.062Z,100293.84
2023-05-15T10:57:26.548Z,100302.06
2023-05-15T11:02:31.705Z,100302.41
2023-05-15T11:07:36.578Z,100308.13
2023-05-15T11:12:57.796Z,100310.69
2023-05-15T11:18:05.669Z,100296.13
2023-05-15T11:23:10.780Z,100293.47
2023-05-15T11:28:23.427Z,100283.59
2023-05-15T11:33:31.440Z,100274.09
2023-05-15T11:38:41.305Z,100274.06
2023-05-15T11:43:44.851Z,100256.31
2023-05-15T11:48:48.911Z,100255.41
2023-05-15T11:53:55.341Z,100244.16
2023-05-15T11:59:00.372Z,100251.38
2023-05-15T12:04:04.006Z,100257.78
2023-05-15T12:09:16.299Z,100243.53
2023-05-15T12:14:19.698Z,100234.84
2023-05-15T12:19:28.701Z,100228.06
2023-05-15T12:24:35.878Z,100224.94
2023-05-15T12:29:39.789Z,100217.19
2023-05-15T12:34:43.294Z,100200.63
2023-05-15T12:39:55.718Z,100206.06
2023-05-15T12:44:59.193Z,100214.50
2023-05-15T12:50:02.760Z,100204.28
2023-05-15T12:55:10.142Z,100203.78
2023-05-15T13:00:15.590Z,100205.56
2023-05-15T13:05:19.171Z,100204.50
2023-05-15T13:10:25.417Z,100180.03
2023-05-15T13:15:31.660Z,100182.53
2023-05-15T13:20:36.620Z,100209.91
2023-05-15T13:25:41.908Z,100207.38
2023-05-15T13:30:45.785Z,100196.69
2023-05-15T13:35:49.300Z,100191.44
2023-05-15T13:40:54.262Z,100175.56
2023-05-15T13:45:57.702Z,100176.44
2023-05-15T13:51:01.179Z,100175.41
2023-05-15T13:56:06.530Z,100183.91
2023-05-15T14:01:10.206Z,100176.16
2023-05-15T14:06:14.139Z,100179.13
2023-05-15T14:11:19.227Z,100181.88
2023-05-15T14:16:22.718Z,100178.13
2023-05-15T14:21:26.318Z,100180.88
2023-05-15T14:26:31.125Z,100169.06
2023-05-15T14:31:35.255Z,100167.53
2023-05-15T14:36:38.783Z,100175.16
2023-05-15T14:41:43.797Z,100159.66
2023-05-15T14:46:47.269Z,100163.00
2023-05-15T14:51:50.765Z,100154.06
2023-05-15T14:56:57.383Z,100155.25
2023-05-15T15:02:01.084Z,100153.53
2023-05-15T15:07:05.856Z,100158.28
2023-05-15T15:12:11.018Z,100154.38
2023-05-15T15:17:14.442Z,100159.72
2023-05-15T15:22:17.957Z,100162.50
2023-05-15T15:27:22.816Z,100163.72
2023-05-15T15:32:26.704Z,100163.41
2023-05-15T15:37:31.737Z,100161.31
2023-05-15T15:42:36.867Z,100166.59
2023-05-15T15:47:40.448Z,100158.31
2023-05-15T15:52:43.844Z,100167.16
2023-05-15T15:57:48.689Z,100165.81
2023-05-15T16:02:52.108Z,100176.63
2023-05-15T16:07:55.794Z,100177.41
2023-05-15T16:13:00.657Z,100172.84
2023-05-15T16:18:04.200Z,100174.94
2023-05-15T16:23:09.374Z,100180.22
2023-05-15T16:28:14.351Z,100181.88
2023-05-15T16:33:18.721Z,100187.22
2023-05-15T16:38:23.051Z,100191.44
2023-05-15T16:43:27.920Z,100190.75
2023-05-15T16:48:31.304Z,100195.94
2023-05-15T16:53:34.809Z,100204.22
2023-05-15T16:58:42.402Z,100209.25
2023-05-15T17:03:46.046Z,100214.34
2023-05-15T17:08:49.757Z,100208.03
2023-05-15T17:13:54.593Z,100209.38
2023-05-15T17:18:58.166Z,100214.03
2023-05-15T17:24:01.874Z,100222.94
2023-05-15T17:29:07.023Z,100217.56
2023-05-15T17:34:10.428Z,100224.75
2023-05-15T17:39:14.106Z,100230.59
2023-05-15T17:44:19.111Z,100240.59
2023-05-15T17:49:23.056Z,100235.38
2023-05-15T17:54:26.599Z,100246.59
2023-05-15T17:59:32.247Z,100247.34
2023-05-15T18:04:35.992Z,100260.13
2023-05-15T18:09:39.895Z,100262.06
2023-05-15T18:14:44.838Z,100271.34
2023-05-15T18:19:48.417Z,100266.25
2023-05-15T18:24:51.765Z,100264.72
2023-05-15T18:29:56.746Z,100267.38
2023-05-15T18:35:00.289Z,100277.19
2023-05-15T18:40:03.812Z,100279.75
2023-05-15T18:45:13.225Z,100277.84
2023-05-15T18:50:16.792Z,100282.09
2023-05-15T18:55:20.275Z,100283.63
2023-05-15T19:00:43.523Z,100280.66
2023-05-15T19:05:46.786Z,100282.31
2023-05-15T19:10:50.360Z,100285.47
2023-05-15T19:15:55.669Z,100280.69
2023-05-15T19:20:59.096Z,100288.31
2023-05-15T19:26:02.460Z,100289.66
2023-05-15T19:31:14.036Z,100292.72
2023-05-15T19:36:24.087Z,100302.84
2023-05-15T19:41:27.673Z,100298.72
2023-05-15T19:46:32.848Z,100291.94
2023-05-15T19:51:36.362Z,100289.66
2023-05-15T19:56:39.905Z,100294.41
2023-05-15T20:01:44.815Z,100294.81
2023-05-15T20:06:48.437Z,100305.84
2023-05-15T20:11:51.949Z,100308.78
2023-05-15T20:16:57.543Z,100310.78
2023-05-15T20:22:03.528Z,100308.41
2023-05-15T20:27:07.434Z,100304.31
2023-05-15T20:32:13.831Z,100305.53
2023-05-15T20:37:17.659Z,100304.00
2023-05-15T20:42:21.094Z,100307.75
2023-05-15T20:47:25.969Z,100311.47
2023-05-15T20:52:29.497Z,100310.84
2023-05-15T20:57:32.974Z,100311.09
2023-05-15T21:02:37.804Z,100319.25
2023-05-15T21:07:41.548Z,100322.06
2023-05-15T21:12:45.095Z,100332.00
2023-05-15T21:17:50.383Z,100326.88
2023-05-15T21:22:53.988Z,100328.81
2023-05-15T21:27:57.547Z,100328.97
2023-05-15T21:33:02.584Z,100336.13
2023-05-15T21:38:06.047Z,100331.91
2023-05-15T21:43:10.502Z,100339.16
2023-05-15T21:48:15.815Z,100343.75
2023-05-15T21:53:19.241Z,100246.78
2023-05-15T21:58:22.606Z,100250.53
2023-05-15T22:03:27.464Z,100257.78
2023-05-15T22:08:31.116Z,100264.16
2023-05-15T22:13:34.670Z,100269.66
2023-05-15T22:18:39.901Z,100266.25
2023-05-15T22:23:43.353Z,100268.16
2023-05-15T22:28:49.009Z,100260.44
2023-05-15T22:33:53.816Z,100267.53
2023-05-15T22:38:57.303Z,100264.09
2023-05-15T22:44:00.736Z,100264.19
2023-05-15T22:49:09.972Z,100258.13
2023-05-15T22:54:13.518Z,100266.13
2023-05-15T22:59:16.922Z,100275.88
2023-05-15T23:04:21.961Z,100261.91
2023-05-15T23:09:25.710Z,100254.94
2023-05-15T23:14:29.360Z,100262.13
2023-05-15T23:19:34.262Z,100265.75
2023-05-15T23:24:37.793Z,100284.22
2023-05-15T23:29:41.234Z,100277.97
2023-05-15T23:34:46.534Z,100285.06
2023-05-15T23:39:50.064Z,100279.81
2023-05-15T23:44:53.829Z,100282.53
2023-05-15T23:49:58.764Z,100286.09
2023-05-15T23:55:02.266Z,100275.53
